Time;durP1;ratioP1;P1;durP2;ratioP2;P2;SDS_P1;SDS_P2;PMS_P1;PMS_P2;Temp;Humidity;BMP_temperature;BMP_pressure;BME280_temperature;BME280_humidity;BME280_pressure;Samples;Min_cycle;Max_cycle;Signal;HPM_P1;HPM_P2
2023/03/05 00:00:07;;;;;;;8.50;7.60;;;8.90;71.90;;;;;;923374;151;27416;-74
2023/03/05 00:02:34;;;;;;;8.43;7.63;;;8.90;71.90;;;;;;924134;151;27348;-74
2023/03/05 00:05:00;;;;;;;10.10;8.87;;;8.90;71.90;;;;;;922788;151;27500;-74
2023/03/05 00:07:27;;;;;;;9.17;8.37;;;8.90;71.90;;;;;;923666;151;27977;-74
2023/03/05 00:09:53;;;;;;;8.30;7.43;;;8.90;72.10;;;;;;923528;151;27371;-74
2023/03/05 00:12:20;;;;;;;7.87;7.10;;;8.80;72.10;;;;;;924206;151;27497;-74
2023/03/05 00:14:46;;;;;;;8.90;8.00;;;8.80;72.10;;;;;;922541;151;27463;-74
2023/03/05 00:17:13;;;;;;;9.63;8.63;;;8.80;72.10;;;;;;924628;151;27495;-74
2023/03/05 00:19:40;;;;;;;9.03;8.13;;;8.80;72.20;;;;;;923721;151;27446;-74
2023/03/05 00:22:06;;;;;;;9.23;8.40;;;8.80;72.20;;;;;;939477;148;27367;-73
2023/03/05 00:24:33;;;;;;;8.47;7.50;;;8.80;72.20;;;;;;914048;153;27465;-74
2023/03/05 00:26:59;;;;;;;9.33;7.50;;;8.80;72.20;;;;;;910365;153;27425;-74
2023/03/05 00:29:27;;;;;;;8.40;7.47;;;8.80;72.20;;;;;;926302;151;27402;-74
2023/03/05 00:31:53;;;;;;;9.33;7.40;;;8.80;72.20;;;;;;908258;154;27478;-74
2023/03/05 00:34:19;;;;;;;9.07;6.97;;;8.80;72.20;;;;;;913599;153;27374;-74
2023/03/05 00:36:46;;;;;;;7.93;7.13;;;8.80;72.80;;;;;;912339;153;27437;-74
2023/03/05 00:39:12;;;;;;;8.33;7.43;;;8.80;72.10;;;;;;909478;153;27434;-74
2023/03/05 00:41:39;;;;;;;8.60;6.87;;;8.80;72.10;;;;;;925968;151;27343;-74
2023/03/05 00:44:05;;;;;;;8.77;7.70;;;8.80;72.10;;;;;;929216;150;27533;-74
2023/03/05 00:46:32;;;;;;;8.00;7.10;;;8.80;72.10;;;;;;930595;150;27404;-74
2023/03/05 00:48:59;;;;;;;8.20;6.93;;;8.80;72.10;;;;;;909272;153;27441;-74
2023/03/05 00:51:26;;;;;;;7.03;6.33;;;8.70;71.90;;;;;;907759;153;27432;-74
2023/03/05 00:53:52;;;;;;;8.17;6.27;;;8.70;71.80;;;;;;910067;153;27499;-74
2023/03/05 00:56:18;;;;;;;11.17;7.17;;;8.70;71.70;;;;;;926767;151;27319;-74
2023/03/05 00:58:45;;;;;;;6.70;5.87;;;8.70;71.70;;;;;;925114;151;27501;-74
2023/03/05 01:01:12;;;;;;;7.70;6.23;;;8.70;71.60;;;;;;911265;153;27423;-74
2023/03/05 01:03:38;;;;;;;7.17;6.47;;;8.60;71.70;;;;;;917930;153;27374;-74
2023/03/05 01:06:05;;;;;;;6.63;5.77;;;8.60;71.50;;;;;;912378;152;27465;-74
2023/03/05 01:08:31;;;;;;;7.30;6.47;;;8.60;71.50;;;;;;923249;151;27496;-74
2023/03/05 01:10:58;;;;;;;7.33;6.47;;;8.60;71.40;;;;;;925981;151;27426;-74
2023/03/05 01:13:25;;;;;;;8.70;6.90;;;8.60;71.40;;;;;;927392;151;27343;-74
2023/03/05 01:15:51;;;;;;;8.87;6.80;;;8.60;71.40;;;;;;911763;153;27343;-74
2023/03/05 01:18:18;;;;;;;7.50;6.03;;;8.60;71.40;;;;;;910700;153;27986;-74
2023/03/05 01:20:44;;;;;;;8.30;6.43;;;8.50;71.40;;;;;;909665;153;27473;-74
2023/03/05 01:23:11;;;;;;;7.17;5.90;;;8.50;71.40;;;;;;919549;153;27412;-74
2023/03/05 01:25:37;;;;;;;7.33;5.83;;;8.50;71.40;;;;;;925727;151;27524;-74
2023/03/05 01:28:04;;;;;;;6.80;6.07;;;8.50;71.40;;;;;;908477;153;27402;-74
2023/03/05 01:30:31;;;;;;;8.40;5.70;;;8.50;71.40;;;;;;910447;154;27424;-74
2023/03/05 01:32:57;;;;;;;6.97;6.27;;;8.50;71.60;;;;;;926935;151;27411;-74
2023/03/05 01:35:24;;;;;;;7.93;5.70;;;8.50;71.40;;;;;;918032;153;27390;-74
2023/03/05 01:37:50;;;;;;;5.97;5.20;;;8.50;71.50;;;;;;925426;151;27418;-74
2023/03/05 01:40:17;;;;;;;6.77;5.00;;;8.50;71.40;;;;;;910185;153;27394;-74
2023/03/05 01:42:47;;;;;;;6.33;5.73;;;8.40;71.40;;;;;;918353;153;27500;-74
2023/03/05 01:45:13;;;;;;;6.40;5.37;;;8.50;71.40;;;;;;909471;153;27481;-74
2023/03/05 01:47:40;;;;;;;6.60;5.20;;;8.50;71.30;;;;;;911289;153;27480;-74
2023/03/05 01:50:06;;;;;;;5.90;5.30;;;8.40;71.30;;;;;;926338;151;27489;-74
2023/03/05 01:52:33;;;;;;;5.97;5.13;;;8.40;71.30;;;;;;926674;150;27501;-74
2023/03/05 01:54:59;;;;;;;6.47;4.60;;;8.40;71.30;;;;;;909533;153;28129;-74
2023/03/05 01:57:26;;;;;;;5.37;4.57;;;8.40;71.30;;;;;;909157;153;27381;-74
2023/03/05 01:59:53;;;;;;;4.80;4.30;;;8.40;71.10;;;;;;922776;151;27772;-74
2023/03/05 02:02:20;;;;;;;5.80;4.90;;;8.40;71.10;;;;;;908432;153;27368;-74
2023/03/05 02:04:46;;;;;;;4.87;4.37;;;8.40;71.60;;;;;;925539;151;27497;-74
2023/03/05 02:07:12;;;;;;;8.80;4.57;;;8.40;70.80;;;;;;924842;153;27471;-74
2023/03/05 02:09:39;;;;;;;6.00;3.97;;;8.40;70.70;;;;;;924990;151;27763;-74
2023/03/05 02:12:06;;;;;;;4.73;3.60;;;8.40;70.60;;;;;;908820;153;27380;-75
2023/03/05 02:14:32;;;;;;;4.70;3.60;;;8.40;70.30;;;;;;912631;153;27493;-74
2023/03/05 02:16:59;;;;;;;6.23;3.73;;;8.40;70.10;;;;;;909636;153;27439;-74
2023/03/05 02:19:25;;;;;;;4.80;3.60;;;8.40;69.90;;;;;;911511;153;27406;-74
2023/03/05 02:21:52;;;;;;;6.03;3.60;;;8.40;69.80;;;;;;909173;153;27709;-74
2023/03/05 02:24:18;;;;;;;3.47;2.93;;;8.40;69.70;;;;;;908782;153;27360;-74
2023/03/05 02:26:45;;;;;;;5.03;3.07;;;8.40;69.70;;;;;;903968;153;27478;-74
2023/03/05 02:29:12;;;;;;;3.90;2.80;;;8.40;69.60;;;;;;923744;151;27386;-74
2023/03/05 02:31:38;;;;;;;5.47;3.13;;;8.40;69.50;;;;;;919258;152;27364;-74
2023/03/05 02:34:05;;;;;;;4.03;2.90;;;8.30;69.20;;;;;;919908;152;27642;-74
2023/03/05 02:36:31;;;;;;;2.70;2.50;;;8.30;69.20;;;;;;919790;152;27380;-74
2023/03/05 02:38:58;;;;;;;5.30;3.00;;;8.30;69.10;;;;;;918534;152;27431;-74
2023/03/05 02:41:25;;;;;;;4.10;2.67;;;8.30;69.10;;;;;;902403;154;27475;-74
2023/03/05 02:43:51;;;;;;;4.13;2.70;;;8.30;69.00;;;;;;911523;154;27427;-74
2023/03/05 02:46:18;;;;;;;4.77;2.87;;;8.30;68.90;;;;;;905298;153;27384;-74
2023/03/05 02:48:44;;;;;;;2.70;2.50;;;8.30;68.90;;;;;;920098;152;27537;-74
2023/03/05 02:51:11;;;;;;;2.57;2.37;;;8.30;69.60;;;;;;920040;152;27517;-74
2023/03/05 02:53:37;;;;;;;3.83;2.53;;;8.30;68.70;;;;;;918726;152;27345;-74
2023/03/05 02:56:04;;;;;;;2.87;2.10;;;8.30;68.60;;;;;;920289;152;27385;-74
2023/03/05 02:58:31;;;;;;;5.50;2.80;;;8.30;68.60;;;;;;919307;152;27408;-74
2023/03/05 03:00:57;;;;;;;2.37;2.13;;;8.20;68.50;;;;;;919812;152;27452;-74
2023/03/05 03:03:24;;;;;;;3.60;2.17;;;8.30;68.50;;;;;;905160;154;27338;-74
2023/03/05 03:05:50;;;;;;;3.63;2.27;;;8.30;68.50;;;;;;902990;155;27527;-74
2023/03/05 03:08:17;;;;;;;3.67;2.40;;;8.30;68.40;;;;;;905474;154;27495;-74
2023/03/05 03:10:44;;;;;;;4.70;2.63;;;8.30;68.30;;;;;;901978;155;27418;-74
2023/03/05 03:13:10;;;;;;;4.07;2.90;;;8.30;68.40;;;;;;919072;151;27490;-74
2023/03/05 03:15:38;;;;;;;5.07;2.67;;;8.30;68.40;;;;;;913528;154;27386;-74
2023/03/05 03:18:03;;;;;;;2.87;2.60;;;8.30;68.30;;;;;;904708;154;27342;-74
2023/03/05 03:20:31;;;;;;;3.03;2.23;;;8.30;68.40;;;;;;919695;152;27394;-74
2023/03/05 03:22:57;;;;;;;3.70;2.40;;;8.40;68.20;;;;;;922459;151;27390;-74
2023/03/05 03:25:23;;;;;;;3.43;2.70;;;8.40;68.20;;;;;;924577;151;27437;-74
2023/03/05 03:27:50;;;;;;;4.90;2.70;;;8.40;68.10;;;;;;925908;151;27484;-75
2023/03/05 03:30:16;;;;;;;2.93;2.33;;;8.40;68.00;;;;;;925947;151;27476;-74
2023/03/05 03:32:43;;;;;;;6.53;2.90;;;8.30;67.90;;;;;;925812;151;27417;-73
2023/03/05 03:35:09;;;;;;;3.67;2.57;;;8.30;67.80;;;;;;926497;151;27941;-74
2023/03/05 03:37:36;;;;;;;5.07;2.80;;;8.30;67.90;;;;;;925882;151;27374;-73
2023/03/05 03:40:04;;;;;;;4.63;3.13;;;8.30;67.80;;;;;;926175;151;27461;-74
2023/03/05 03:42:29;;;;;;;4.23;1.70;;;8.30;67.70;;;;;;925616;151;27497;-74
2023/03/05 03:44:56;;;;;;;3.57;1.80;;;8.20;67.60;;;;;;927959;151;27808;-74
2023/03/05 03:47:22;;;;;;;2.30;1.60;;;8.20;67.50;;;;;;926862;151;27455;-74
2023/03/05 03:49:49;;;;;;;2.67;1.80;;;8.20;67.50;;;;;;927483;150;27346;-73
2023/03/05 03:52:16;;;;;;;2.97;1.80;;;8.20;67.40;;;;;;926592;151;28357;-74
2023/03/05 03:54:42;;;;;;;1.60;1.40;;;8.20;67.30;;;;;;926143;151;27374;-74
2023/03/05 03:57:09;;;;;;;4.00;1.83;;;8.10;67.20;;;;;;926230;151;27407;-73
2023/03/05 03:59:35;;;;;;;3.97;1.80;;;8.10;67.10;;;;;;926364;151;27328;-75
2023/03/05 04:02:02;;;;;;;2.43;1.70;;;8.10;67.20;;;;;;924469;151;27403;-76
2023/03/05 04:04:29;;;;;;;3.37;1.80;;;8.10;67.20;;;;;;924430;151;27417;-76
2023/03/05 04:06:55;;;;;;;2.30;1.43;;;8.10;67.20;;;;;;926935;151;27416;-76
2023/03/05 04:09:22;;;;;;;2.40;1.50;;;8.10;67.20;;;;;;926267;151;27352;-77
2023/03/05 04:11:48;;;;;;;3.60;1.40;;;8.10;67.20;;;;;;926544;151;27365;-77
2023/03/05 04:14:15;;;;;;;1.53;1.40;;;8.10;67.20;;;;;;925774;151;27382;-77
2023/03/05 04:16:41;;;;;;;1.87;1.20;;;8.00;67.10;;;;;;926896;151;28166;-77
2023/03/05 04:19:08;;;;;;;1.80;1.60;;;8.00;67.10;;;;;;926284;151;27714;-76
2023/03/05 04:21:35;;;;;;;2.57;1.90;;;8.00;67.10;;;;;;925699;151;27481;-76
2023/03/05 04:24:01;;;;;;;2.10;1.70;;;8.00;67.10;;;;;;926772;151;27393;-76
2023/03/05 04:26:28;;;;;;;1.70;1.60;;;8.00;67.20;;;;;;926345;151;27946;-77
2023/03/05 04:28:54;;;;;;;2.10;1.40;;;8.00;67.10;;;;;;925703;151;27513;-77
2023/03/05 04:31:22;;;;;;;3.13;1.93;;;8.00;67.10;;;;;;924564;151;27346;-77
2023/03/05 04:33:47;;;;;;;3.90;2.00;;;8.00;67.90;;;;;;925379;151;27452;-77
2023/03/05 04:36:14;;;;;;;2.27;1.30;;;8.00;67.20;;;;;;926270;151;27407;-77
2023/03/05 04:38:41;;;;;;;2.30;1.70;;;8.00;67.10;;;;;;924337;151;27830;-77
2023/03/05 04:41:07;;;;;;;1.80;1.33;;;8.00;67.10;;;;;;927186;151;27359;-77
2023/03/05 04:43:34;;;;;;;2.27;1.67;;;8.00;67.10;;;;;;925797;151;27374;-77
2023/03/05 04:46:00;;;;;;;3.80;1.30;;;8.00;67.10;;;;;;926957;151;27366;-76
2023/03/05 04:48:27;;;;;;;1.70;1.60;;;8.00;67.10;;;;;;926643;150;27398;-76
2023/03/05 04:50:54;;;;;;;2.20;1.93;;;8.00;67.10;;;;;;926212;151;27375;-77
2023/03/05 04:53:20;;;;;;;3.23;1.40;;;8.00;67.20;;;;;;924493;151;27398;-77
2023/03/05 04:55:47;;;;;;;2.30;1.73;;;7.90;67.10;;;;;;926018;151;28339;-77
2023/03/05 04:58:13;;;;;;;2.83;1.80;;;7.90;67.10;;;;;;927418;151;27496;-76
2023/03/05 05:00:40;;;;;;;1.87;1.40;;;7.90;67.10;;;;;;922959;151;27374;-77
2023/03/05 05:03:06;;;;;;;2.60;1.43;;;7.90;67.10;;;;;;924536;151;27324;-77
2023/03/05 05:05:33;;;;;;;3.40;1.70;;;7.80;66.80;;;;;;927178;151;27342;-76
2023/03/05 05:08:00;;;;;;;2.47;1.57;;;7.80;66.70;;;;;;925941;151;27455;-77
2023/03/05 05:10:26;;;;;;;1.30;1.20;;;7.80;66.60;;;;;;926660;151;27841;-77
2023/03/05 05:12:53;;;;;;;5.63;1.40;;;7.70;66.50;;;;;;924939;151;27291;-77
2023/03/05 05:15:19;;;;;;;2.53;1.03;;;7.70;66.50;;;;;;925730;151;27352;-77
2023/03/05 05:17:46;;;;;;;1.20;1.10;;;7.70;67.20;;;;;;926548;151;27366;-77
2023/03/05 05:20:13;;;;;;;2.63;1.20;;;7.60;66.40;;;;;;925694;151;27401;-77
2023/03/05 05:22:39;;;;;;;1.43;1.23;;;7.60;66.20;;;;;;928473;151;27295;-77
2023/03/05 05:25:06;;;;;;;2.43;1.00;;;7.60;66.20;;;;;;925364;151;27315;-77
2023/03/05 05:27:32;;;;;;;3.70;1.00;;;7.60;66.20;;;;;;925599;151;27727;-77
2023/03/05 05:29:59;;;;;;;1.13;1.03;;;7.50;66.00;;;;;;922730;151;27509;-76
2023/03/05 05:32:25;;;;;;;2.53;1.10;;;7.50;66.00;;;;;;924114;151;27683;-76
2023/03/05 05:34:55;;;;;;;3.03;1.00;;;7.50;66.10;;;;;;925803;151;27371;-77
2023/03/05 05:37:21;;;;;;;3.13;1.07;;;7.50;66.00;;;;;;923208;151;27833;-77
2023/03/05 05:39:49;;;;;;;2.17;1.20;;;7.40;66.00;;;;;;922141;151;27394;-77
2023/03/05 05:42:15;;;;;;;2.83;1.50;;;7.40;66.80;;;;;;923284;151;27382;-76
2023/03/05 05:44:41;;;;;;;1.27;1.10;;;7.40;66.20;;;;;;924650;151;27396;-77
2023/03/05 05:47:08;;;;;;;2.73;1.10;;;7.40;66.20;;;;;;924173;151;27364;-77
2023/03/05 05:49:34;;;;;;;1.30;0.97;;;7.40;66.20;;;;;;924100;151;27717;-77
2023/03/05 05:52:01;;;;;;;1.57;1.37;;;7.40;66.30;;;;;;923771;151;27403;-77
2023/03/05 05:54:27;;;;;;;1.13;1.00;;;7.40;66.40;;;;;;924326;151;27786;-76
2023/03/05 05:56:54;;;;;;;1.63;1.00;;;7.40;66.40;;;;;;924703;151;27442;-76
2023/03/05 05:59:21;;;;;;;4.07;1.43;;;7.40;66.50;;;;;;923010;151;27395;-76
2023/03/05 06:01:47;;;;;;;1.90;1.20;;;7.40;67.30;;;;;;921588;151;27508;-77
2023/03/05 06:04:14;;;;;;;2.13;1.27;;;7.40;66.50;;;;;;923974;151;27323;-76
2023/03/05 06:06:40;;;;;;;3.00;1.50;;;7.40;66.50;;;;;;923104;151;27353;-77
2023/03/05 06:09:07;;;;;;;2.37;1.10;;;7.40;66.50;;;;;;922701;151;27414;-76
2023/03/05 06:11:34;;;;;;;1.93;1.60;;;7.40;66.50;;;;;;926722;151;27378;-76
2023/03/05 06:14:02;;;;;;;3.33;1.70;;;7.40;66.50;;;;;;923201;151;27314;-77
2023/03/05 06:16:27;;;;;;;1.70;1.30;;;7.40;66.60;;;;;;921423;151;27503;-76
2023/03/05 06:18:53;;;;;;;2.57;1.70;;;7.40;66.70;;;;;;923693;151;27354;-77
2023/03/05 06:21:20;;;;;;;1.97;1.60;;;7.40;66.70;;;;;;922111;151;27903;-77
2023/03/05 06:23:46;;;;;;;1.97;1.33;;;7.40;66.80;;;;;;925718;151;27390;-77
2023/03/05 06:26:13;;;;;;;2.37;1.47;;;7.40;66.80;;;;;;923568;151;27388;-77
2023/03/05 06:28:40;;;;;;;2.17;1.20;;;7.40;66.80;;;;;;922246;151;27424;-77
2023/03/05 06:31:06;;;;;;;3.23;1.43;;;7.40;66.80;;;;;;917734;152;27317;-77
2023/03/05 06:33:33;;;;;;;3.50;1.60;;;7.40;66.80;;;;;;918739;152;27415;-77
2023/03/05 06:35:59;;;;;;;2.27;1.50;;;7.40;66.90;;;;;;902461;155;27482;-77
2023/03/05 06:38:26;;;;;;;1.90;1.37;;;7.40;67.00;;;;;;904363;155;27370;-77
2023/03/05 06:40:53;;;;;;;2.67;1.50;;;7.40;67.00;;;;;;903540;154;27445;-76
2023/03/05 06:43:19;;;;;;;1.77;1.53;;;7.50;67.00;;;;;;940641;148;27353;-77
2023/03/05 06:45:46;;;;;;;3.30;1.93;;;7.50;67.00;;;;;;925955;151;27472;-77
2023/03/05 06:48:12;;;;;;;2.43;1.70;;;7.50;67.00;;;;;;918789;152;27352;-77
2023/03/05 06:50:39;;;;;;;2.33;1.83;;;7.50;67.00;;;;;;918574;152;27313;-77
2023/03/05 06:53:05;;;;;;;6.73;2.27;;;7.50;67.10;;;;;;918937;152;27392;-77
2023/03/05 06:55:38;;;;;;;3.17;1.73;;;7.50;67.00;;;;;;918186;151;28537;-77
2023/03/05 06:57:59;;;;;;;4.17;1.93;;;7.50;66.90;;;;;;917115;152;27328;-77
2023/03/05 07:00:29;;;;;;;2.27;2.03;;;7.50;66.90;;;;;;920008;152;27377;-77
2023/03/05 07:02:52;;;;;;;2.70;1.87;;;7.60;66.90;;;;;;917412;154;27344;-73
2023/03/05 07:05:18;;;;;;;3.93;1.80;;;7.60;67.00;;;;;;903097;155;27415;-74
2023/03/05 07:07:45;;;;;;;3.43;1.80;;;7.60;67.00;;;;;;904794;153;27510;-73
2023/03/05 07:10:12;;;;;;;2.33;1.70;;;7.70;67.10;;;;;;906293;154;27328;-74
2023/03/05 07:12:38;;;;;;;2.10;1.50;;;7.70;67.10;;;;;;902843;155;27381;-74
2023/03/05 07:15:05;;;;;;;2.93;1.50;;;7.70;67.00;;;;;;903532;155;27348;-74
2023/03/05 07:17:31;;;;;;;2.20;1.97;;;7.70;66.90;;;;;;919439;152;27514;-74
2023/03/05 07:19:58;;;;;;;3.33;1.70;;;7.80;67.00;;;;;;917744;152;27498;-74
2023/03/05 07:22:25;;;;;;;3.83;1.63;;;7.80;66.90;;;;;;903830;154;27390;-74
2023/03/05 07:24:51;;;;;;;2.53;1.90;;;7.90;67.00;;;;;;919986;152;27440;-73
2023/03/05 07:27:18;;;;;;;3.53;1.83;;;7.90;67.00;;;;;;919208;152;27390;-74
2023/03/05 07:29:44;;;;;;;2.37;1.80;;;7.90;66.80;;;;;;922712;151;27917;-75
2023/03/05 07:32:11;;;;;;;3.80;1.70;;;7.90;67.10;;;;;;928373;150;27473;-74
2023/03/05 07:34:38;;;;;;;3.50;1.53;;;8.00;66.80;;;;;;917326;153;27364;-73
2023/03/05 07:37:04;;;;;;;2.67;1.80;;;8.00;66.70;;;;;;909666;153;27492;-73
2023/03/05 07:39:31;;;;;;;2.90;1.67;;;8.00;66.70;;;;;;908318;153;27405;-73
2023/03/05 07:41:57;;;;;;;1.50;1.40;;;8.00;66.70;;;;;;912673;153;27501;-73
2023/03/05 07:44:24;;;;;;;2.47;1.60;;;8.10;66.90;;;;;;924760;153;27369;-73
2023/03/05 07:46:50;;;;;;;5.53;2.20;;;8.10;66.70;;;;;;924468;151;27993;-73
2023/03/05 07:49:17;;;;;;;2.63;1.50;;;8.10;66.10;;;;;;924485;151;27382;-73
2023/03/05 07:51:44;;;;;;;2.27;1.50;;;8.10;66.60;;;;;;909518;153;27533;-73
2023/03/05 07:54:10;;;;;;;2.53;1.60;;;8.20;66.70;;;;;;909333;154;27402;-73
2023/03/05 07:56:37;;;;;;;3.00;1.50;;;8.20;66.70;;;;;;924221;151;27300;-73
2023/03/05 07:59:03;;;;;;;2.37;1.60;;;8.20;66.60;;;;;;912151;153;27384;-73
2023/03/05 08:01:30;;;;;;;2.10;1.67;;;8.20;66.60;;;;;;926233;151;27479;-73
2023/03/05 08:03:56;;;;;;;2.33;1.90;;;8.30;66.40;;;;;;924693;151;27395;-73
2023/03/05 08:06:23;;;;;;;2.67;1.73;;;8.30;66.40;;;;;;925757;151;27304;-73
2023/03/05 08:08:50;;;;;;;3.00;1.93;;;8.30;66.40;;;;;;925471;151;27462;-73
2023/03/05 08:11:16;;;;;;;1.90;1.63;;;8.30;66.40;;;;;;913695;153;27374;-73
2023/03/05 08:13:43;;;;;;;2.40;2.13;;;8.30;66.40;;;;;;909882;153;27427;-74
2023/03/05 08:16:12;;;;;;;2.40;2.00;;;8.30;66.40;;;;;;910565;153;27461;-74
2023/03/05 08:18:39;;;;;;;2.97;2.20;;;8.30;66.50;;;;;;910408;153;27408;-73
2023/03/05 08:21:05;;;;;;;2.93;1.60;;;8.40;67.20;;;;;;926517;151;28270;-74
2023/03/05 08:23:33;;;;;;;2.93;2.23;;;8.40;66.40;;;;;;926011;151;27489;-73
2023/03/05 08:25:58;;;;;;;3.60;2.60;;;8.40;66.40;;;;;;925052;151;27352;-74
2023/03/05 08:28:25;;;;;;;4.13;2.80;;;8.40;66.40;;;;;;926690;153;27367;-73
2023/03/05 08:30:51;;;;;;;3.77;3.43;;;8.50;66.30;;;;;;922525;151;27459;-73
2023/03/05 08:33:18;;;;;;;4.47;3.67;;;8.50;66.40;;;;;;939985;148;27389;-73
2023/03/05 08:35:45;;;;;;;5.90;3.70;;;8.60;66.60;;;;;;924176;151;27355;-73
2023/03/05 08:38:12;;;;;;;4.60;3.37;;;8.50;66.30;;;;;;904879;154;27391;-74
2023/03/05 08:40:38;;;;;;;5.17;3.50;;;8.60;66.40;;;;;;917201;152;27355;-73
2023/03/05 08:43:06;;;;;;;4.23;3.83;;;8.60;66.40;;;;;;920569;152;27474;-73
2023/03/05 08:45:31;;;;;;;6.23;3.50;;;8.60;66.50;;;;;;920352;151;27348;-73
2023/03/05 08:47:58;;;;;;;5.80;3.83;;;8.70;66.60;;;;;;901900;155;27342;-73
2023/03/05 08:50:24;;;;;;;6.23;4.30;;;8.70;66.70;;;;;;900699;155;27422;-73
2023/03/05 08:52:51;;;;;;;4.73;3.63;;;8.70;66.70;;;;;;917370;152;27847;-73
2023/03/05 08:55:17;;;;;;;6.20;4.00;;;8.80;66.60;;;;;;918195;152;27393;-73
2023/03/05 08:57:44;;;;;;;4.60;3.83;;;8.80;66.50;;;;;;902245;154;27383;-73
2023/03/05 09:00:11;;;;;;;7.73;4.30;;;8.80;66.40;;;;;;919059;152;27355;-73
2023/03/05 09:02:37;;;;;;;5.20;3.93;;;8.80;66.40;;;;;;903679;155;27394;-73
2023/03/05 09:05:04;;;;;;;6.80;4.47;;;8.90;66.50;;;;;;918449;152;27506;-75
2023/03/05 09:07:30;;;;;;;4.87;3.97;;;8.90;66.30;;;;;;903717;155;27351;-75
2023/03/05 09:09:57;;;;;;;7.27;4.30;;;8.90;66.20;;;;;;917064;152;27486;-76
2023/03/05 09:12:24;;;;;;;5.97;4.17;;;8.90;66.20;;;;;;901435;155;27773;-76
2023/03/05 09:14:50;;;;;;;6.13;4.23;;;9.00;66.30;;;;;;902679;155;27413;-76
2023/03/05 09:17:17;;;;;;;5.73;4.63;;;9.00;66.20;;;;;;918024;152;27429;-76
2023/03/05 09:19:43;;;;;;;5.50;3.97;;;9.00;66.20;;;;;;905203;154;27406;-76
2023/03/05 09:22:10;;;;;;;7.20;4.70;;;9.10;66.20;;;;;;919895;152;27455;-76
2023/03/05 09:24:37;;;;;;;4.90;4.03;;;9.10;66.00;;;;;;919211;152;27448;-76
2023/03/05 09:27:03;;;;;;;6.57;4.47;;;9.20;66.00;;;;;;904984;154;27535;-76
2023/03/05 09:29:30;;;;;;;5.90;4.10;;;9.20;66.00;;;;;;903761;153;27383;-76
2023/03/05 09:31:56;;;;;;;6.60;4.30;;;9.20;65.80;;;;;;904628;154;27461;-76
2023/03/05 09:34:23;;;;;;;5.20;4.60;;;9.30;65.80;;;;;;916624;152;27323;-76
2023/03/05 09:36:50;;;;;;;7.40;5.03;;;9.30;65.70;;;;;;918358;152;27433;-76
2023/03/05 09:39:16;;;;;;;6.27;4.70;;;9.30;65.70;;;;;;906224;153;27479;-76
2023/03/05 09:41:48;;;;;;;5.57;4.40;;;9.30;65.60;;;;;;902066;155;27391;-76
2023/03/05 09:44:18;;;;;;;7.70;4.90;;;9.40;65.60;;;;;;904329;154;27436;-76
2023/03/05 09:46:50;;;;;;;5.60;4.90;;;9.40;65.70;;;;;;925542;151;27399;-76
2023/03/05 09:49:31;;;;;;;5.93;4.97;;;9.40;65.70;;;;;;916931;152;27354;-76
2023/03/05 09:52:10;;;;;;;6.60;4.50;;;9.50;65.60;;;;;;920319;151;27356;-77
2023/03/05 09:54:40;;;;;;;5.33;4.60;;;9.50;65.60;;;;;;901009;155;27436;-76
2023/03/05 09:57:06;;;;;;;6.23;4.47;;;9.60;65.60;;;;;;903664;155;27757;-77
2023/03/05 09:59:34;;;;;;;4.93;4.23;;;9.60;65.50;;;;;;903962;154;27444;-75
2023/03/05 10:01:59;;;;;;;7.10;4.27;;;9.70;65.60;;;;;;917207;152;27324;-76
2023/03/05 10:04:41;;;;;;;4.83;3.77;;;9.70;65.40;;;;;;901708;155;27967;-76
2023/03/05 10:07:07;;;;;;;5.47;4.17;;;9.80;65.40;;;;;;918961;152;27526;-76
2023/03/05 10:09:49;;;;;;;4.20;3.80;;;9.90;65.30;;;;;;902629;154;27401;-77
2023/03/05 10:12:16;;;;;;;5.80;4.37;;;9.90;65.20;;;;;;917554;152;27489;-77
2023/03/05 10:14:43;;;;;;;6.17;4.40;;;10.00;65.30;;;;;;938461;148;27350;-78
2023/03/05 10:17:34;;;;;;;5.80;4.23;;;10.10;65.20;;;;;;924163;151;27456;-78
2023/03/05 10:20:03;;;;;;;5.03;4.30;;;10.20;65.10;;;;;;922052;151;27399;-77
2023/03/05 10:22:51;;;;;;;5.83;4.70;;;10.30;65.00;;;;;;937738;148;27365;-77
2023/03/05 10:25:20;;;;;;;5.30;4.00;;;10.40;64.80;;;;;;924348;151;27450;-79
2023/03/05 10:27:49;;;;;;;7.23;4.50;;;10.50;64.70;;;;;;916595;152;27478;-78
2023/03/05 10:30:28;;;;;;;8.27;5.03;;;10.60;64.60;;;;;;917450;152;27351;-78
2023/03/05 10:32:59;;;;;;;5.00;4.27;;;10.70;64.40;;;;;;911632;153;27565;-78
2023/03/05 10:35:39;;;;;;;7.00;4.30;;;10.80;64.20;;;;;;927201;150;27329;-79
2023/03/05 10:38:21;;;;;;;5.97;4.27;;;10.90;63.90;;;;;;924970;150;27394;-77
2023/03/05 10:40:56;;;;;;;6.10;4.60;;;11.00;63.60;;;;;;926345;150;27441;-77
2023/03/05 10:43:41;;;;;;;4.13;3.73;;;11.10;63.50;;;;;;928648;150;27381;-77
2023/03/05 10:46:10;;;;;;;5.00;4.03;;;11.10;63.00;;;;;;928493;150;27393;-77
2023/03/05 10:48:37;;;;;;;5.67;4.30;;;11.20;62.80;;;;;;925987;150;27386;-77
2023/03/05 10:51:12;;;;;;;4.30;3.90;;;11.30;62.40;;;;;;925450;150;27387;-76
2023/03/05 10:53:44;;;;;;;4.60;3.80;;;11.30;62.20;;;;;;929151;150;27417;-77
2023/03/05 10:56:11;;;;;;;4.57;3.60;;;11.40;62.10;;;;;;927448;150;27307;-77
2023/03/05 10:58:38;;;;;;;4.80;4.30;;;11.50;61.90;;;;;;927441;150;27458;-76
2023/03/05 11:01:11;;;;;;;5.70;4.50;;;11.50;61.70;;;;;;925917;150;27339;-76
2023/03/05 11:03:58;;;;;;;6.80;4.50;;;11.60;61.50;;;;;;926835;150;27520;-76
2023/03/05 11:06:30;;;;;;;4.83;4.30;;;11.60;61.30;;;;;;927469;150;27500;-77
2023/03/05 11:08:56;;;;;;;5.23;4.27;;;11.70;61.20;;;;;;925219;150;27431;-76
2023/03/05 11:11:23;;;;;;;5.30;4.67;;;11.70;61.00;;;;;;924512;150;27434;-76
2023/03/05 11:13:50;;;;;;;5.27;4.20;;;11.70;60.70;;;;;;926747;150;27496;-77
2023/03/05 11:16:28;;;;;;;5.93;4.47;;;11.70;60.50;;;;;;926138;150;27375;-77
2023/03/05 11:19:13;;;;;;;6.03;4.40;;;11.70;60.20;;;;;;925754;150;27314;-77
2023/03/05 11:21:40;;;;;;;7.67;4.50;;;11.70;60.20;;;;;;929344;150;27881;-77
2023/03/05 11:24:09;;;;;;;5.07;4.33;;;11.70;60.20;;;;;;928000;150;27413;-76
2023/03/05 11:26:36;;;;;;;6.50;4.47;;;11.70;59.90;;;;;;926095;150;27399;-77
2023/03/05 11:29:03;;;;;;;5.37;4.87;;;11.60;59.80;;;;;;924310;150;27497;-76
2023/03/05 11:31:29;;;;;;;5.17;3.70;;;11.60;59.90;;;;;;927316;150;27428;-76
2023/03/05 11:34:02;;;;;;;4.50;3.53;;;11.60;60.00;;;;;;918447;152;27510;-77
2023/03/05 11:36:28;;;;;;;4.83;3.43;;;11.60;59.90;;;;;;916862;152;27391;-77
2023/03/05 11:38:58;;;;;;;6.57;2.97;;;11.60;59.70;;;;;;903012;155;27488;-77
2023/03/05 11:41:30;;;;;;;3.70;3.20;;;11.60;59.70;;;;;;902581;154;27481;-77
2023/03/05 11:43:57;;;;;;;4.63;3.67;;;11.60;59.60;;;;;;920466;152;27372;-77
2023/03/05 11:46:23;;;;;;;4.60;3.87;;;11.60;59.60;;;;;;923282;151;27406;-76
2023/03/05 11:48:50;;;;;;;5.30;4.40;;;11.60;59.50;;;;;;904605;154;27404;-76
2023/03/05 11:51:19;;;;;;;6.03;4.20;;;11.60;59.40;;;;;;904440;154;27500;-77
2023/03/05 11:53:46;;;;;;;5.73;4.73;;;11.50;59.20;;;;;;901696;155;27381;-77
2023/03/05 11:56:28;;;;;;;13.60;4.87;;;11.50;59.20;;;;;;901827;154;27532;-76
2023/03/05 11:59:06;;;;;;;5.50;4.80;;;11.40;59.80;;;;;;918021;152;27966;-77
2023/03/05 12:01:33;;;;;;;5.17;4.37;;;11.30;59.20;;;;;;918960;152;27450;-77
2023/03/05 12:03:59;;;;;;;5.87;4.90;;;11.20;59.10;;;;;;921551;152;27471;-76
2023/03/05 12:06:44;;;;;;;7.27;4.73;;;11.10;59.30;;;;;;902034;155;27413;-77
2023/03/05 12:09:23;;;;;;;8.07;5.30;;;11.10;59.60;;;;;;901901;155;27478;-77
2023/03/05 12:11:50;;;;;;;5.97;5.07;;;11.00;59.70;;;;;;919428;151;27396;-77
2023/03/05 12:14:22;;;;;;;6.57;5.07;;;10.90;59.80;;;;;;905604;154;27449;-76
2023/03/05 12:17:10;;;;;;;5.37;3.80;;;10.90;59.80;;;;;;901896;155;27864;-77
2023/03/05 12:19:51;;;;;;;4.87;4.17;;;10.90;59.80;;;;;;902891;155;27558;-77
2023/03/05 12:22:21;;;;;;;4.50;4.00;;;10.80;59.70;;;;;;916581;152;27356;-77
2023/03/05 12:24:47;;;;;;;5.53;4.30;;;10.80;59.70;;;;;;916765;150;27470;-77
2023/03/05 12:27:14;;;;;;;5.17;4.10;;;10.70;59.70;;;;;;905664;153;27416;-76
2023/03/05 12:29:49;;;;;;;5.73;4.07;;;10.70;59.70;;;;;;903334;154;27962;-77
2023/03/05 12:32:24;;;;;;;4.97;4.30;;;10.60;59.50;;;;;;940877;148;27406;-77
2023/03/05 12:34:48;;;;;;;4.80;4.00;;;10.60;60.00;;;;;;940044;148;27357;-77
2023/03/05 12:37:21;;;;;;;7.00;4.40;;;10.60;60.10;;;;;;941506;148;27321;-76
2023/03/05 12:39:48;;;;;;;7.37;4.63;;;10.60;59.80;;;;;;943293;148;27461;-76
2023/03/05 12:42:29;;;;;;;5.47;4.20;;;10.50;60.30;;;;;;941343;148;27490;-76
2023/03/05 12:45:11;;;;;;;6.07;4.60;;;10.50;60.20;;;;;;942461;148;27430;-76
2023/03/05 12:47:43;;;;;;;6.30;4.73;;;10.50;60.40;;;;;;942339;148;27412;-77
2023/03/05 12:50:28;;;;;;;6.30;5.23;;;10.50;60.40;;;;;;941956;148;27364;-77
2023/03/05 12:53:03;;;;;;;7.60;4.97;;;10.50;60.40;;;;;;941643;148;27461;-76
2023/03/05 12:55:33;;;;;;;5.20;4.70;;;10.50;60.60;;;;;;943145;148;27329;-76
2023/03/05 12:58:20;;;;;;;5.60;4.73;;;10.50;60.60;;;;;;941262;148;27309;-76